Time;durP1;ratioP1;P1;durP2;ratioP2;P2;SDS_P1;SDS_P2;PMS_P1;PMS_P2;Temp;Humidity;BMP_temperature;BMP_pressure;BME280_temperature;BME280_humidity;BME280_pressure;Samples;Min_cycle;Max_cycle;Signal;HPM_P1;HPM_P2
2022/08/19 00:01:34;;;;;;;1.20;0.60;;;;;;;28.91;36.17;94796.25;5039830;28;20251;-62
2022/08/19 00:04:06;;;;;;;0.80;0.80;;;;;;;28.89;36.82;94799.34;5043236;28;20735;-62
2022/08/19 00:06:35;;;;;;;2.40;1.20;;;;;;;29.02;36.52;94801.72;5060549;28;20204;-62
2022/08/19 00:09:06;;;;;;;0.97;0.97;;;;;;;29.01;36.32;94811.00;5066428;28;20294;-60
2022/08/19 00:11:37;;;;;;;0.70;0.70;;;;;;;29.09;35.89;94807.22;5062129;28;20670;-59
2022/08/19 00:14:05;;;;;;;0.43;0.43;;;;;;;28.98;36.19;94805.19;5053944;28;20200;-61
2022/08/19 00:16:32;;;;;;;0.30;0.30;;;;;;;28.89;36.49;94804.72;5051599;28;20577;-63
2022/08/19 00:18:59;;;;;;;1.13;0.67;;;;;;;29.04;36.44;94816.41;5037679;28;20295;-62
2022/08/19 00:21:26;;;;;;;1.10;0.50;;;;;;;29.04;36.50;94815.63;5060577;28;20400;-61
2022/08/19 00:23:57;;;;;;;0.50;0.50;;;;;;;28.90;36.59;94813.59;5057255;28;20235;-62
2022/08/19 00:26:26;;;;;;;0.80;0.80;;;;;;;28.85;36.75;94825.50;5051852;28;20210;-65
2022/08/19 00:28:54;;;;;;;0.63;0.63;;;;;;;28.89;36.89;94804.72;5052002;28;20763;-62
2022/08/19 00:31:21;;;;;;;3.10;0.80;;;;;;;29.05;36.45;94815.25;5044264;28;20257;-63
2022/08/19 00:33:50;;;;;;;1.67;1.27;;;;;;;29.12;36.19;94822.66;5071998;28;20206;-64
2022/08/19 00:36:17;;;;;;;2.23;1.37;;;;;;;29.12;36.06;94823.44;5067073;28;20816;-61
2022/08/19 00:38:44;;;;;;;0.70;0.70;;;;;;;29.04;36.69;94810.22;5062866;28;20249;-64
2022/08/19 00:41:20;;;;;;;0.57;0.57;;;;;;;29.06;36.73;94818.72;5054223;28;20648;-62
2022/08/19 00:44:26;;;;;;;0.60;0.60;;;;;;;29.01;36.94;94821.78;5062362;28;20195;-60
2022/08/19 00:46:58;;;;;;;1.40;1.30;;;;;;;28.68;37.54;94807.25;5071936;28;20195;-61
2022/08/19 00:49:32;;;;;;;1.43;1.33;;;;;;;28.62;37.47;94814.13;5070808;28;20227;-61
2022/08/19 00:52:13;;;;;;;1.77;1.33;;;;;;;28.48;37.43;94816.66;5031910;28;20201;-61
2022/08/19 00:54:41;;;;;;;0.97;0.90;;;;;;;28.32;37.68;94791.84;5060472;28;20697;-64
2022/08/19 00:57:12;;;;;;;1.27;1.27;;;;;;;28.54;37.49;94809.03;5041601;28;20192;-63
2022/08/19 00:59:41;;;;;;;1.47;1.37;;;;;;;28.58;37.21;94810.63;5069973;28;20605;-61
2022/08/19 01:02:30;;;;;;;1.17;0.83;;;;;;;28.42;37.90;94807.34;5037920;28;20192;-60
2022/08/19 01:04:57;;;;;;;1.17;0.80;;;;;;;28.45;37.85;94822.78;5051455;28;20201;-62
2022/08/19 01:07:24;;;;;;;1.27;1.17;;;;;;;28.45;38.40;94817.38;5070013;28;20199;-61
2022/08/19 01:09:52;;;;;;;0.43;0.43;;;;;;;28.29;38.86;94818.75;5048927;28;20250;-62
2022/08/19 01:12:19;;;;;;;0.90;0.90;;;;;;;28.26;38.56;94819.50;5064827;28;20223;-62
2022/08/19 01:14:47;;;;;;;0.57;0.57;;;;;;;28.08;38.68;94818.53;5052467;28;20193;-63
2022/08/19 01:17:15;;;;;;;1.10;1.00;;;;;;;28.14;38.87;94817.81;5059202;28;20203;-62
2022/08/19 01:19:46;;;;;;;1.10;0.53;;;;;;;28.20;38.56;94816.34;5047704;28;20192;-62
2022/08/19 01:22:30;;;;;;;0.90;0.83;;;;;;;28.36;38.32;94814.22;5071046;28;20588;-63
2022/08/19 01:25:00;;;;;;;0.70;0.70;;;;;;;28.39;38.09;94813.50;5051110;28;20215;-62
2022/08/19 01:27:37;;;;;;;0.80;0.80;;;;;;;28.41;38.08;94815.81;5062803;28;20249;-59
2022/08/19 01:30:14;;;;;;;2.27;1.83;;;;;;;28.30;38.43;94815.72;5050264;28;20259;-60
2022/08/19 01:32:41;;;;;;;1.60;1.40;;;;;;;28.12;38.62;94814.72;5065260;28;20188;-63
2022/08/19 01:35:08;;;;;;;1.53;1.37;;;;;;;28.08;38.48;94813.91;5061787;28;20205;-62
2022/08/19 01:37:53;;;;;;;0.83;0.83;;;;;;;27.75;38.85;94814.66;5052063;28;20224;-63
2022/08/19 01:40:23;;;;;;;1.90;1.17;;;;;;;27.92;38.63;94810.59;5060778;28;20192;-62
2022/08/19 01:42:52;;;;;;;0.57;0.57;;;;;;;27.83;38.35;94804.72;5033622;28;20244;-62
2022/08/19 01:45:22;;;;;;;0.60;0.60;;;;;;;27.78;37.73;94810.44;5048610;28;20203;-61
2022/08/19 01:47:49;;;;;;;0.67;0.53;;;;;;;27.81;38.12;94809.69;5054371;28;20196;-64
2022/08/19 01:50:27;;;;;;;2.03;1.10;;;;;;;27.67;38.42;94820.28;5042599;28;20251;-63
2022/08/19 01:52:54;;;;;;;0.57;0.37;;;;;;;27.72;38.70;94812.66;5044342;28;20246;-62
2022/08/19 01:55:32;;;;;;;0.57;0.57;;;;;;;27.67;38.63;94812.22;5036357;28;20197;-63
2022/08/19 01:58:02;;;;;;;1.37;1.27;;;;;;;27.79;38.42;94807.38;5053493;28;20191;-64
2022/08/19 02:00:31;;;;;;;0.50;0.50;;;;;;;27.47;39.44;94813.47;5066285;28;20204;-65
2022/08/19 02:02:58;;;;;;;0.83;0.50;;;;;;;27.67;39.17;94814.91;5060347;28;20277;-60
2022/08/19 02:05:25;;;;;;;1.30;1.17;;;;;;;27.75;39.30;94824.63;5055207;28;20372;-62
2022/08/19 02:07:52;;;;;;;1.27;1.17;;;;;;;27.92;38.63;94816.00;5070294;28;20317;-63
2022/08/19 02:10:21;;;;;;;0.63;0.63;;;;;;;27.84;38.57;94819.75;5069320;28;20191;-63
2022/08/19 02:12:49;;;;;;;0.80;0.80;;;;;;;27.84;38.72;94820.53;5056827;28;20196;-64
2022/08/19 02:15:19;;;;;;;0.90;0.90;;;;;;;28.01;38.38;94819.19;5055809;28;20207;-61
2022/08/19 02:17:47;;;;;;;3.23;1.77;;;;;;;27.97;38.73;94821.09;5049753;28;20215;-63
2022/08/19 02:20:14;;;;;;;1.20;1.07;;;;;;;27.89;38.94;94814.03;5037364;28;20197;-61
2022/08/19 02:22:42;;;;;;;0.83;0.67;;;;;;;27.95;38.60;94818.00;5057728;28;20757;-61
2022/08/19 02:25:13;;;;;;;0.83;0.83;;;;;;;27.90;39.03;94818.28;5040356;28;20211;-61
2022/08/19 02:27:42;;;;;;;0.97;0.67;;;;;;;27.80;38.96;94824.31;5039349;28;20196;-63
2022/08/19 02:30:15;;;;;;;0.70;0.60;;;;;;;27.84;39.02;94819.75;5069685;28;20206;-61
2022/08/19 02:32:43;;;;;;;0.57;0.43;;;;;;;27.82;39.24;94820.13;5055950;28;20748;-62
2022/08/19 02:35:12;;;;;;;0.40;0.40;;;;;;;27.73;39.54;94818.84;5070307;28;20199;-62
2022/08/19 02:40:27;;;;;;;1.47;1.13;;;;;;;27.51;40.01;94822.38;5057897;28;20193;-62
2022/08/19 02:42:56;;;;;;;1.03;0.87;;;;;;;27.44;40.14;94822.28;5049166;28;20220;-61
2022/08/19 02:45:23;;;;;;;0.40;0.40;;;;;;;27.30;40.14;94827.44;5049289;28;20242;-61
2022/08/19 02:47:49;;;;;;;1.60;1.27;;;;;;;27.40;39.91;94824.16;5064806;28;20196;-65
2022/08/19 02:50:17;;;;;;;0.57;0.57;;;;;;;27.44;39.67;94835.75;5054050;28;20590;-60
2022/08/19 02:52:45;;;;;;;0.83;0.83;;;;;;;27.45;39.54;94835.38;5029390;28;20195;-61
2022/08/19 02:55:12;;;;;;;0.40;0.40;;;;;;;27.11;40.36;94843.66;5049478;28;20662;-60
2022/08/19 02:57:38;;;;;;;0.93;0.93;;;;;;;27.02;40.11;94844.69;5046486;28;20234;-62
2022/08/19 03:00:06;;;;;;;1.70;1.50;;;;;;;27.13;39.86;94841.41;5069014;28;20687;-64
2022/08/19 03:02:33;;;;;;;0.40;0.40;;;;;;;27.17;39.85;94844.94;5055026;28;20193;-61
2022/08/19 03:05:03;;;;;;;0.47;0.47;;;;;;;27.02;40.21;94838.53;5055859;28;20298;-62
2022/08/19 03:07:30;;;;;;;1.13;1.03;;;;;;;26.89;40.68;94840.66;5041015;28;20188;-60
2022/08/19 03:09:58;;;;;;;1.33;1.23;;;;;;;26.92;40.01;94813.03;5045182;28;20233;-65
2022/08/19 03:12:25;;;;;;;0.30;0.30;;;;;;;27.00;40.21;94836.22;5065104;28;20228;-62
2022/08/19 03:14:52;;;;;;;2.77;1.17;;;;;;;26.63;40.66;94837.06;5068462;28;20192;-62
2022/08/19 03:17:20;;;;;;;0.73;0.73;;;;;;;26.71;40.71;94834.19;5054304;28;20307;-59
2022/08/19 03:19:47;;;;;;;0.93;0.93;;;;;;;26.62;40.93;94828.22;5060201;28;20200;-64
2022/08/19 03:22:13;;;;;;;0.47;0.47;;;;;;;25.38;42.84;94826.13;5063363;28;20200;-62
2022/08/19 03:24:40;;;;;;;0.70;0.70;;;;;;;25.76;42.10;94826.19;5049133;28;20200;-62
2022/08/19 03:27:07;;;;;;;0.40;0.40;;;;;;;26.20;41.55;94827.47;5061862;28;20257;-62
2022/08/19 03:29:37;;;;;;;0.70;0.70;;;;;;;26.28;41.87;94823.78;5043258;28;20225;-63
2022/08/19 03:32:10;;;;;;;0.60;0.60;;;;;;;26.29;42.07;94832.63;5054455;28;20227;-62
2022/08/19 03:34:57;;;;;;;1.67;1.57;;;;;;;26.07;42.32;94826.06;5036684;28;20747;-61
2022/08/19 03:37:25;;;;;;;2.03;1.50;;;;;;;26.30;42.15;94829.56;5049008;28;20204;-64
2022/08/19 03:39:52;;;;;;;6.77;1.60;;;;;;;26.28;41.88;94837.22;5035051;28;20193;-64
2022/08/19 03:42:19;;;;;;;0.20;0.20;;;;;;;26.46;41.91;94837.56;5048719;28;20224;-63
2022/08/19 03:45:07;;;;;;;1.50;1.23;;;;;;;26.53;41.50;94843.06;5041322;28;20192;-62
2022/08/19 03:47:34;;;;;;;0.47;0.47;;;;;;;26.49;41.32;94852.97;5062780;28;20204;-61
2022/08/19 03:50:01;;;;;;;0.87;0.87;;;;;;;26.69;40.79;94847.22;5043536;28;20228;-62
2022/08/19 03:52:28;;;;;;;0.30;0.30;;;;;;;26.82;40.25;94851.25;5039713;28;20210;-63
2022/08/19 03:54:54;;;;;;;1.07;1.07;;;;;;;26.69;40.16;94857.97;5048359;28;20200;-62
2022/08/19 03:57:21;;;;;;;1.50;1.20;;;;;;;26.70;40.56;94848.75;5041183;28;20200;-63
2022/08/19 03:59:58;;;;;;;2.77;1.13;;;;;;;26.84;40.07;94865.13;5055005;28;20218;-64
2022/08/19 04:02:41;;;;;;;0.43;0.43;;;;;;;26.73;40.75;94853.41;5033300;28;20300;-64
2022/08/19 04:05:24;;;;;;;3.83;1.87;;;;;;;27.06;39.96;94871.66;5030334;28;20197;-64
2022/08/19 04:07:53;;;;;;;0.83;0.83;;;;;;;26.99;40.38;94866.94;5030815;28;20636;-63
2022/08/19 04:10:20;;;;;;;0.60;0.60;;;;;;;27.04;39.91;94866.63;5053664;28;20224;-62
2022/08/19 04:12:47;;;;;;;1.43;0.90;;;;;;;27.04;40.18;94863.94;5054551;28;20204;-62
2022/08/19 04:15:15;;;;;;;1.40;1.23;;;;;;;27.14;39.97;94869.84;5057255;28;20693;-63
2022/08/19 04:17:41;;;;;;;0.70;0.70;;;;;;;27.24;39.94;94871.94;5045298;28;20189;-62
2022/08/19 04:20:09;;;;;;;0.60;0.60;;;;;;;26.99;40.39;94874.22;5028416;28;20562;-61
2022/08/19 04:22:36;;;;;;;2.07;1.53;;;;;;;26.95;40.54;94876.84;5057977;28;20231;-59
2022/08/19 04:25:03;;;;;;;0.47;0.47;;;;;;;26.95;40.95;94876.09;5035014;28;20253;-61
2022/08/19 04:27:31;;;;;;;1.00;0.93;;;;;;;26.94;40.75;94878.00;5049592;28;20192;-62
2022/08/19 04:29:57;;;;;;;1.50;0.80;;;;;;;27.02;40.62;94881.56;5061205;28;20221;-63
2022/08/19 04:32:24;;;;;;;3.20;1.07;;;;;;;27.16;40.53;94883.72;5043977;28;20558;-63
2022/08/19 04:34:51;;;;;;;1.33;1.23;;;;;;;26.87;40.85;94880.56;5036945;28;20652;-63
2022/08/19 04:37:38;;;;;;;0.77;0.77;;;;;;;26.75;41.25;94882.66;5040735;28;20196;-63
2022/08/19 04:42:51;;;;;;;0.80;0.80;;;;;;;26.69;41.71;94882.16;5061278;28;20220;-60
2022/08/19 04:45:18;;;;;;;1.77;1.07;;;;;;;26.69;42.01;94882.16;5063315;28;20207;-60
2022/08/19 04:47:48;;;;;;;1.37;1.37;;;;;;;26.68;41.75;94877.09;5049780;28;20770;-62
2022/08/19 04:50:27;;;;;;;1.53;1.40;;;;;;;26.76;41.51;94874.22;5046329;28;20271;-63
2022/08/19 04:52:55;;;;;;;3.03;0.83;;;;;;;26.92;41.41;94868.72;5046415;28;20205;-65
2022/08/19 04:55:25;;;;;;;10.20;4.40;;;;;;;27.09;41.38;94878.22;5060372;28;20232;-66
2022/08/19 04:57:55;;;;;;;3.07;1.90;;;;;;;27.14;41.00;94883.28;5042236;28;20204;-65
2022/08/19 05:00:23;;;;;;;3.87;3.57;;;;;;;27.31;40.69;94888.22;5048454;28;20286;-65
2022/08/19 05:02:50;;;;;;;12.47;2.40;;;;;;;27.24;40.87;94888.06;5031067;28;20197;-67
2022/08/19 05:05:17;;;;;;;0.80;0.80;;;;;;;27.14;40.93;94883.28;5045300;28;20729;-64
2022/08/19 05:07:44;;;;;;;0.60;0.60;;;;;;;27.25;40.54;94889.63;5031636;28;20189;-63
2022/08/19 05:10:12;;;;;;;1.10;1.00;;;;;;;27.47;40.05;94886.94;5058817;28;20208;-67
2022/08/19 05:12:39;;;;;;;0.67;0.67;;;;;;;27.51;39.97;94892.38;5031631;28;20206;-68
2022/08/19 05:15:08;;;;;;;0.57;0.57;;;;;;;27.52;39.93;94888.53;5059017;28;20193;-65
2022/08/19 05:17:35;;;;;;;1.17;0.97;;;;;;;27.44;39.82;94886.88;5070015;28;20204;-65
2022/08/19 05:22:53;;;;;;;0.97;0.97;;;;;;;27.40;40.05;94881.44;5037817;28;20212;-64
2022/08/19 05:25:21;;;;;;;0.70;0.70;;;;;;;27.45;40.59;94880.34;5038748;28;20223;-68
2022/08/19 05:27:48;;;;;;;1.50;0.90;;;;;;;27.63;40.21;94886.75;5064080;28;20266;-65
2022/08/19 05:30:16;;;;;;;4.10;3.13;;;;;;;27.75;40.04;94883.88;5039750;28;20590;-65
2022/08/19 05:32:44;;;;;;;11.73;8.73;;;;;;;27.85;39.82;94885.91;5062402;28;20753;-64
2022/08/19 05:35:11;;;;;;;5.10;3.23;;;;;;;27.66;40.19;94876.03;5041185;28;20196;-61
2022/08/19 05:37:39;;;;;;;0.90;0.80;;;;;;;27.68;40.27;94886.47;5052115;28;20209;-63
2022/08/19 05:40:08;;;;;;;1.80;1.13;;;;;;;27.92;39.95;94883.31;5029080;28;20240;-65
2022/08/19 05:42:35;;;;;;;0.23;0.23;;;;;;;27.51;40.53;94886.97;5060970;28;20318;-60
2022/08/19 05:45:03;;;;;;;2.83;0.97;;;;;;;27.66;40.61;94888.75;5067876;28;20195;-64
2022/08/19 05:47:30;;;;;;;0.83;0.83;;;;;;;27.40;41.03;94896.81;5052979;28;20219;-64
2022/08/19 05:49:57;;;;;;;2.47;0.60;;;;;;;27.71;40.79;94893.81;5040480;28;20902;-62
2022/08/19 05:52:24;;;;;;;0.53;0.53;;;;;;;27.07;41.02;94878.59;5049414;28;20195;-65
2022/08/19 05:54:55;;;;;;;0.70;0.70;;;;;;;27.82;40.46;94878.59;5068784;28;20295;-62
2022/08/19 05:57:23;;;;;;;0.90;0.90;;;;;;;28.06;40.11;94885.47;5042862;28;20187;-63
2022/08/19 05:59:51;;;;;;;0.50;0.50;;;;;;;27.70;40.32;94882.25;5070454;28;20253;-66
2022/08/19 06:02:30;;;;;;;0.40;0.40;;;;;;;27.87;40.86;94889.03;5030645;28;20197;-63
2022/08/19 06:04:57;;;;;;;1.80;1.23;;;;;;;28.07;39.66;94885.09;5043191;28;20678;-66
2022/08/19 06:07:25;;;;;;;0.73;0.63;;;;;;;27.37;41.40;94897.53;5041172;28;20200;-62
2022/08/19 06:09:52;;;;;;;1.03;1.03;;;;;;;27.77;40.62;94884.28;5048027;28;20217;-62
2022/08/19 06:12:31;;;;;;;0.50;0.50;;;;;;;28.15;39.77;94894.03;5044515;28;20197;-60
2022/08/19 06:14:59;;;;;;;0.73;0.73;;;;;;;28.37;38.95;94891.25;5053097;28;20204;-61
2022/08/19 06:17:29;;;;;;;0.93;0.93;;;;;;;28.63;38.43;94883.06;5049087;28;20185;-63
2022/08/19 06:19:58;;;;;;;1.03;0.93;;;;;;;28.21;40.40;94893.34;5040691;28;20198;-63
2022/08/19 06:22:25;;;;;;;1.47;1.37;;;;;;;28.09;39.33;94893.59;5063902;28;20223;-60
2022/08/19 06:24:53;;;;;;;0.77;0.77;;;;;;;27.87;40.67;94897.91;5059045;28;20207;-65
2022/08/19 06:27:21;;;;;;;2.83;1.60;;;;;;;28.13;40.44;94897.09;5055858;28;20188;-62
2022/08/19 06:29:48;;;;;;;1.20;1.10;;;;;;;28.18;40.86;94888.69;5069732;28;20285;-65
2022/08/19 06:32:16;;;;;;;1.57;1.17;;;;;;;28.80;38.38;94892.50;5056385;28;20185;-68
2022/08/19 06:34:43;;;;;;;1.33;1.23;;;;;;;28.50;39.23;94889.84;5058217;28;20205;-65
2022/08/19 06:37:10;;;;;;;0.40;0.40;;;;;;;28.60;38.98;94900.00;5053960;28;20585;-62
2022/08/19 06:39:40;;;;;;;0.73;0.73;;;;;;;28.87;38.51;94893.34;5041139;28;20253;-63
2022/08/19 06:42:11;;;;;;;3.03;1.73;;;;;;;28.78;38.73;94879.38;5058290;28;20236;-63
2022/08/19 06:44:40;;;;;;;0.93;0.90;;;;;;;28.92;38.76;94886.84;5067092;28;20269;-62
2022/08/19 06:47:12;;;;;;;0.57;0.57;;;;;;;28.75;40.26;94890.91;5070097;28;20571;-62
2022/08/19 06:49:41;;;;;;;0.77;0.77;;;;;;;29.13;38.44;94887.06;5063269;28;20224;-65
2022/08/19 06:52:14;;;;;;;0.83;0.70;;;;;;;28.95;37.46;94884.19;5038417;28;20204;-63
2022/08/19 06:54:44;;;;;;;0.77;0.40;;;;;;;29.44;37.07;94877.66;5051261;28;20585;-63
2022/08/19 06:57:22;;;;;;;1.30;1.20;;;;;;;29.10;37.70;94889.69;5042316;28;20203;-64
2022/08/19 06:59:49;;;;;;;9.70;2.67;;;;;;;29.04;37.86;94885.78;5069152;28;20196;-63
2022/08/19 07:02:17;;;;;;;3.00;1.50;;;;;;;29.64;36.47;94887.84;5041259;28;20188;-66
2022/08/19 07:04:50;;;;;;;0.70;0.70;;;;;;;29.90;36.20;94889.56;5069526;28;20702;-64
2022/08/19 07:07:20;;;;;;;1.20;1.07;;;;;;;29.64;37.43;94898.63;5065038;28;20184;-62
2022/08/19 07:09:52;;;;;;;1.30;0.90;;;;;;;29.65;38.20;94899.41;5038755;28;20247;-61
2022/08/19 07:12:34;;;;;;;0.93;0.80;;;;;;;29.58;36.95;94894.72;5038074;28;20195;-65
2022/08/19 07:15:05;;;;;;;0.70;0.70;;;;;;;29.75;37.69;94893.31;5057226;28;20200;-65
2022/08/19 07:17:34;;;;;;;1.60;1.47;;;;;;;30.21;36.38;94894.34;5058955;28;20694;-64
2022/08/19 07:20:01;;;;;;;1.43;1.13;;;;;;;30.52;35.53;94884.84;5029003;28;20654;-62
2022/08/19 07:22:32;;;;;;;1.37;1.27;;;;;;;30.25;36.64;94899.78;5046091;28;20600;-64
2022/08/19 07:25:00;;;;;;;0.67;0.67;;;;;;;30.34;35.81;94882.09;5059379;28;20203;-61
2022/08/19 07:27:26;;;;;;;0.60;0.60;;;;;;;30.09;36.16;94896.59;5053237;28;20636;-60
2022/08/19 07:29:54;;;;;;;0.97;0.97;;;;;;;30.39;35.39;94883.63;5040982;28;20221;-64
2022/08/19 07:32:27;;;;;;;2.03;1.10;;;;;;;30.42;34.24;94889.03;5044190;28;20204;-61
2022/08/19 07:34:55;;;;;;;0.60;0.60;;;;;;;30.32;34.50;94889.78;5068910;28;20600;-63
2022/08/19 07:37:28;;;;;;;1.00;0.83;;;;;;;30.35;34.07;94896.34;5069304;28;20184;-64
2022/08/19 07:40:00;;;;;;;0.60;0.60;;;;;;;30.36;35.73;94884.41;5043497;28;20203;-63
2022/08/19 07:42:29;;;;;;;1.53;1.43;;;;;;;30.50;36.72;94885.22;5055239;28;20236;-62
2022/08/19 07:44:58;;;;;;;1.90;1.33;;;;;;;30.73;34.59;94882.16;5035269;28;20291;-62
2022/08/19 07:47:25;;;;;;;0.70;0.70;;;;;;;30.95;33.90;94888.44;5061400;28;20274;-64
2022/08/19 07:50:12;;;;;;;0.83;0.83;;;;;;;31.43;33.47;94882.31;5055897;28;20319;-64
2022/08/19 07:52:40;;;;;;;2.77;2.20;;;;;;;31.36;33.99;94881.53;5054017;28;20203;-65
2022/08/19 07:55:09;;;;;;;18.33;0.90;;;;;;;31.36;34.97;94886.94;5065635;28;20340;-63
2022/08/19 07:57:56;;;;;;;0.97;0.97;;;;;;;31.53;33.21;94886.16;5050886;28;20236;-62
2022/08/19 08:00:24;;;;;;;5.67;2.67;;;;;;;31.43;32.66;94886.94;5052908;28;20203;-63
2022/08/19 08:02:52;;;;;;;1.80;1.50;;;;;;;31.44;32.17;94883.09;5061017;28;20300;-61
2022/08/19 08:10:53;;;;;;;0.40;0.40;;;;;;;32.11;33.77;94886.47;5044147;28;20239;-61
2022/08/19 08:13:24;;;;;;;0.90;0.90;;;;;;;31.79;33.90;94880.31;5060504;28;20193;-60
2022/08/19 08:15:52;;;;;;;0.77;0.73;;;;;;;32.42;33.18;94873.97;5056833;28;20196;-64
2022/08/19 08:18:24;;;;;;;0.70;0.70;;;;;;;32.52;32.93;94871.19;5061074;28;20263;-62
2022/08/19 08:20:57;;;;;;;2.23;0.93;;;;;;;32.31;34.03;94865.88;5061926;28;20263;-61
2022/08/19 08:23:25;;;;;;;0.47;0.47;;;;;;;32.60;33.75;94861.88;5053734;28;20675;-63
2022/08/19 08:25:56;;;;;;;2.20;1.00;;;;;;;32.83;32.46;94867.53;5066712;28;20194;-60
2022/08/19 08:28:24;;;;;;;0.73;0.73;;;;;;;33.02;31.33;94857.38;5051931;28;20199;-62
2022/08/19 08:30:56;;;;;;;0.40;0.40;;;;;;;33.13;31.68;94860.78;5057909;28;20323;-62
2022/08/19 08:33:25;;;;;;;1.10;1.10;;;;;;;32.40;31.63;94863.50;5072055;28;20199;-61
2022/08/19 08:36:07;;;;;;;1.00;1.00;;;;;;;32.39;31.47;94861.94;5053331;28;20296;-62
2022/08/19 08:38:36;;;;;;;0.70;0.70;;;;;;;32.65;30.76;94858.75;5051653;28;20272;-60
2022/08/19 08:41:21;;;;;;;1.00;1.00;;;;;;;32.93;30.71;94857.00;5066693;28;20200;-61
2022/08/19 08:43:52;;;;;;;0.70;0.70;;;;;;;32.80;31.83;94854.78;5042597;28;20279;-61
2022/08/19 08:46:49;;;;;;;1.23;0.80;;;;;;;33.05;31.46;94849.19;5051477;28;20216;-63
2022/08/19 08:49:52;;;;;;;0.87;0.50;;;;;;;32.62;29.46;94850.63;5065653;28;20200;-63
2022/08/19 08:52:26;;;;;;;1.47;1.37;;;;;;;33.32;29.78;94846.66;5051917;28;20285;-59
2022/08/19 08:55:04;;;;;;;2.93;1.10;;;;;;;33.63;28.45;94842.91;5050152;28;20208;-59
2022/08/19 08:57:56;;;;;;;0.87;0.87;;;;;;;34.27;28.32;94824.72;5048221;28;20578;-63
2022/08/19 09:00:26;;;;;;;0.70;0.70;;;;;;;34.13;28.25;94835.78;5064855;28;20205;-63
2022/08/19 09:02:57;;;;;;;1.07;0.97;;;;;;;34.36;28.52;94837.84;5051516;28;20188;-61
2022/08/19 09:05:50;;;;;;;3.27;1.07;;;;;;;33.81;27.44;94831.84;5057411;28;20310;-63
2022/08/19 09:08:44;;;;;;;0.40;0.40;;;;;;;34.50;27.40;94837.66;5060863;28;20200;-61
2022/08/19 09:11:35;;;;;;;1.47;1.37;;;;;;;34.92;28.90;94826.19;5039705;28;20297;-61
2022/08/19 09:14:26;;;;;;;0.70;0.70;;;;;;;35.21;27.76;94821.84;5069807;28;20196;-59
2022/08/19 09:17:14;;;;;;;2.00;1.30;;;;;;;35.79;27.28;94823.19;5043238;28;20246;-61
2022/08/19 09:20:10;;;;;;;0.70;0.70;;;;;;;35.08;25.64;94807.28;5071403;28;20295;-64
2022/08/19 09:22:38;;;;;;;0.90;0.80;;;;;;;35.37;25.23;94818.47;5066807;28;20559;-65
2022/08/19 09:25:07;;;;;;;0.50;0.50;;;;;;;34.83;24.85;94822.44;5051497;28;20254;-61
2022/08/19 09:27:37;;;;;;;0.77;0.77;;;;;;;34.48;25.40;94818.25;5048464;28;20201;-59
2022/08/19 09:30:21;;;;;;;0.80;0.80;;;;;;;35.45;24.62;94809.03;5041276;28;20844;-61
2022/08/19 09:32:48;;;;;;;1.00;1.00;;;;;;;35.26;23.64;94809.69;5051122;28;20239;-60
2022/08/19 09:35:23;;;;;;;0.23;0.23;;;;;;;34.81;23.13;94808.47;5061873;28;20335;-62
2022/08/19 09:37:51;;;;;;;4.03;1.37;;;;;;;34.65;23.37;94807.13;5067802;28;20208;-64
2022/08/19 09:40:28;;;;;;;3.13;1.60;;;;;;;34.37;22.99;94806.72;5061647;28;20682;-62
2022/08/19 09:42:57;;;;;;;0.43;0.43;;;;;;;34.63;22.74;94798.63;5063788;28;20263;-61
2022/08/19 09:45:24;;;;;;;0.63;0.50;;;;;;;34.92;22.02;94814.50;5050339;28;20211;-63
2022/08/19 09:47:52;;;;;;;0.40;0.40;;;;;;;35.41;22.20;94802.81;5071117;28;20199;-60
2022/08/19 09:50:22;;;;;;;0.63;0.63;;;;;;;35.98;22.84;94803.38;5055517;28;20319;-62
2022/08/19 09:52:52;;;;;;;0.57;0.57;;;;;;;36.39;23.84;94794.75;5044567;28;20204;-62
2022/08/19 09:55:25;;;;;;;0.30;0.30;;;;;;;36.88;22.43;94784.72;5062888;28;20572;-63
2022/08/19 09:58:01;;;;;;;1.37;1.27;;;;;;;36.67;22.04;94788.69;5053065;28;20638;-60
2022/08/19 10:00:28;;;;;;;1.13;0.77;;;;;;;35.54;20.96;94795.63;5070438;28;20208;-66
2022/08/19 10:02:55;;;;;;;0.63;0.63;;;;;;;36.41;21.61;94787.69;5070693;28;20275;-60
2022/08/19 10:08:11;;;;;;;0.77;0.70;;;;;;;36.35;20.88;94783.88;5059921;28;20593;-62
2022/08/19 10:10:43;;;;;;;0.93;0.40;;;;;;;36.52;21.42;94776.53;5050638;28;20250;-62
2022/08/19 10:13:15;;;;;;;0.50;0.50;;;;;;;37.12;21.80;94775.13;5061224;28;20206;-59
2022/08/19 10:15:43;;;;;;;0.47;0.47;;;;;;;36.77;20.58;94767.78;5070343;28;20720;-65
2022/08/19 10:18:17;;;;;;;2.33;0.80;;;;;;;37.27;20.65;94768.91;5070315;28;20195;-60
2022/08/19 10:20:46;;;;;;;0.50;0.43;;;;;;;37.48;20.48;94771.09;5067648;28;20204;-63
2022/08/19 10:23:19;;;;;;;0.50;0.50;;;;;;;37.34;21.01;94759.78;5039260;28;20193;-64
2022/08/19 10:25:48;;;;;;;0.60;0.60;;;;;;;37.14;21.18;94772.75;5057694;28;20303;-63
2022/08/19 10:28:15;;;;;;;3.83;1.60;;;;;;;37.44;20.94;94770.44;5047285;28;20199;-62
2022/08/19 10:30:44;;;;;;;0.50;0.50;;;;;;;37.42;20.94;94761.13;5053505;28;20566;-65
2022/08/19 10:33:13;;;;;;;0.57;0.57;;;;;;;37.32;21.78;94762.16;5037414;28;20208;-61
2022/08/19 10:35:40;;;;;;;0.60;0.60;;;;;;;37.57;21.74;94756.81;5049827;28;20215;-63
2022/08/19 10:38:21;;;;;;;0.80;0.80;;;;;;;38.14;21.33;94747.84;5029936;28;20207;-62
2022/08/19 10:41:06;;;;;;;1.07;0.70;;;;;;;37.67;20.67;94753.03;5057536;28;20208;-59
2022/08/19 10:43:36;;;;;;;0.63;0.63;;;;;;;38.26;20.89;94753.34;5038096;28;20200;-63
2022/08/19 10:46:09;;;;;;;1.00;0.93;;;;;;;38.33;19.90;94747.66;5063581;28;20623;-62
2022/08/19 10:48:43;;;;;;;0.87;0.87;;;;;;;38.24;20.21;94749.50;5060718;28;20189;-61
2022/08/19 10:53:58;;;;;;;0.30;0.30;;;;;;;38.32;20.31;94735.16;5050880;28;20197;-64
2022/08/19 10:59:13;;;;;;;1.27;0.67;;;;;;;38.29;20.88;94735.28;5044539;28;20325;-65
2022/08/19 11:01:42;;;;;;;0.93;0.50;;;;;;;38.21;20.85;94745.66;5069490;28;20207;-60
2022/08/19 11:04:13;;;;;;;1.10;0.73;;;;;;;37.97;20.67;94741.66;5035473;28;20698;-64
2022/08/19 11:06:43;;;;;;;0.90;0.90;;;;;;;38.57;20.97;94739.13;5062233;28;20289;-63
2022/08/19 11:09:13;;;;;;;8.83;0.83;;;;;;;38.92;19.74;94744.28;5058185;28;20222;-64
2022/08/19 11:11:41;;;;;;;1.03;0.97;;;;;;;38.45;20.74;94719.50;5053233;28;20698;-61
2022/08/19 11:14:14;;;;;;;0.60;0.60;;;;;;;38.44;19.95;94742.63;5036662;28;20189;-63
2022/08/19 11:16:42;;;;;;;0.50;0.50;;;;;;;38.21;19.91;94734.72;5060632;28;20211;-63
2022/08/19 11:19:11;;;;;;;0.60;0.60;;;;;;;37.82;20.18;94743.25;5040949;28;20249;-63
2022/08/19 11:21:41;;;;;;;1.87;1.20;;;;;;;37.04;20.55;94736.31;5069332;28;20682;-62
2022/08/19 11:24:12;;;;;;;1.37;1.00;;;;;;;37.10;20.36;94740.03;5054903;28;20302;-64
2022/08/19 11:26:43;;;;;;;1.73;1.13;;;;;;;37.76;20.18;94714.91;5050133;28;20302;-64
2022/08/19 11:29:12;;;;;;;2.10;1.33;;;;;;;37.97;19.81;94729.94;5030969;28;20201;-61
2022/08/19 11:31:43;;;;;;;0.67;0.67;;;;;;;38.04;20.06;94730.53;5058022;28;20443;-65
2022/08/19 11:34:14;;;;;;;0.60;0.60;;;;;;;38.21;20.34;94718.28;5040852;28;20193;-62
2022/08/19 11:36:44;;;;;;;0.77;0.77;;;;;;;37.99;19.76;94717.38;5069258;28;20191;-64
2022/08/19 11:39:16;;;;;;;0.93;0.80;;;;;;;37.92;19.76;94717.56;5043625;28;20817;-62
2022/08/19 11:41:43;;;;;;;2.87;1.50;;;;;;;37.89;20.71;94718.44;5040430;28;20228;-62
2022/08/19 11:44:10;;;;;;;1.03;1.00;;;;;;;38.49;19.56;94713.94;5067051;28;20615;-62
2022/08/19 11:46:37;;;;;;;2.73;1.37;;;;;;;38.85;20.23;94705.38;5038979;28;20655;-64
2022/08/19 11:49:09;;;;;;;0.70;0.70;;;;;;;39.21;19.24;94705.75;5065051;28;20245;-63
2022/08/19 11:51:42;;;;;;;1.03;0.87;;;;;;;39.73;19.40;94703.13;5038606;28;20374;-59
2022/08/19 11:54:12;;;;;;;3.37;1.40;;;;;;;39.62;19.31;94702.75;5052765;28;20690;-61
2022/08/19 11:56:40;;;;;;;1.30;1.10;;;;;;;39.55;18.87;94686.56;5042106;28;20197;-61
2022/08/19 11:59:07;;;;;;;0.73;0.60;;;;;;;39.63;20.01;94698.81;5072766;28;20256;-63
2022/08/19 12:01:42;;;;;;;0.70;0.70;;;;;;;39.94;19.28;94691.44;5059277;28;20243;-61
2022/08/19 12:04:09;;;;;;;0.70;0.67;;;;;;;39.63;19.98;94687.84;5039114;28;20221;-64
2022/08/19 12:06:39;;;;;;;1.67;1.30;;;;;;;39.69;19.54;94683.28;5065188;28;20257;-63
2022/08/19 12:09:09;;;;;;;2.83;1.40;;;;;;;39.92;20.24;94682.88;5072340;28;20683;-66
2022/08/19 12:11:38;;;;;;;0.80;0.70;;;;;;;40.03;20.09;94672.25;5073078;28;20226;-64
2022/08/19 12:14:05;;;;;;;0.80;0.80;;;;;;;40.20;19.69;94676.28;5064693;28;20220;-61